createdAt,value
2023-04-24T00:01:07.752Z,1.27
2023-04-24T00:03:35.922Z,2.13
2023-04-24T00:06:05.661Z,1.50
2023-04-24T00:08:33.545Z,1.87
2023-04-24T00:11:01.362Z,1.60
2023-04-24T00:13:29.361Z,2.00
2023-04-24T00:15:57.524Z,1.47
2023-04-24T00:18:25.266Z,1.57
2023-04-24T00:20:53.110Z,1.60
2023-04-24T00:23:21.003Z,1.40
2023-04-24T00:25:48.742Z,1.40
2023-04-24T00:28:16.482Z,1.30
2023-04-24T00:30:44.339Z,1.40
2023-04-24T00:33:12.149Z,1.60
2023-04-24T00:35:41.095Z,2.60
2023-04-24T00:38:08.928Z,1.30
2023-04-24T00:40:36.691Z,2.13
2023-04-24T00:43:04.509Z,1.10
2023-04-24T00:45:32.520Z,2.20
2023-04-24T00:48:02.475Z,1.13
2023-04-24T00:50:31.108Z,1.83
2023-04-24T00:52:58.978Z,1.20
2023-04-24T00:55:27.367Z,1.63
2023-04-24T00:57:55.579Z,1.33
2023-04-24T01:00:23.704Z,1.67
2023-04-24T01:02:52.559Z,1.33
2023-04-24T01:05:20.746Z,1.30
2023-04-24T01:07:49.271Z,1.70
2023-04-24T01:10:18.082Z,1.53
2023-04-24T01:12:46.435Z,1.30
2023-04-24T01:15:14.300Z,1.70
2023-04-24T01:17:42.187Z,1.70
2023-04-24T01:20:11.580Z,1.40
2023-04-24T01:22:39.507Z,1.83
2023-04-24T01:25:09.428Z,1.80
2023-04-24T01:27:37.329Z,2.23
2023-04-24T01:30:08.655Z,1.30
2023-04-24T01:32:37.367Z,2.30
2023-04-24T01:35:08.280Z,1.30
2023-04-24T01:37:37.479Z,2.07
2023-04-24T01:40:07.888Z,1.70
2023-04-24T01:42:36.069Z,2.17
2023-04-24T01:45:06.682Z,1.47
2023-04-24T01:47:34.643Z,2.13
2023-04-24T01:50:02.942Z,1.40
2023-04-24T01:52:31.594Z,2.17
2023-04-24T01:55:01.384Z,1.50
2023-04-24T01:57:30.831Z,2.27
2023-04-24T01:59:58.893Z,1.50
2023-04-24T02:02:29.117Z,1.90
2023-04-24T02:04:57.234Z,1.83
2023-04-24T02:07:25.261Z,1.80
2023-04-24T02:09:52.954Z,1.90
2023-04-24T02:12:20.929Z,1.60
2023-04-24T02:14:48.661Z,1.70
2023-04-24T02:17:16.528Z,1.80
2023-04-24T02:19:44.670Z,2.00
2023-04-24T02:22:12.744Z,1.80
2023-04-24T02:24:40.844Z,2.47
2023-04-24T02:27:08.852Z,2.10
2023-04-24T02:29:37.168Z,2.33
2023-04-24T02:32:05.011Z,2.63
2023-04-24T02:34:32.954Z,2.83
2023-04-24T02:37:00.829Z,2.17
2023-04-24T02:39:28.543Z,2.43
2023-04-24T02:41:56.326Z,2.60
2023-04-24T02:44:24.112Z,2.27
2023-04-24T02:46:51.858Z,2.40
2023-04-24T02:49:19.585Z,2.20
2023-04-24T02:51:47.328Z,2.80
2023-04-24T02:54:15.112Z,2.80
2023-04-24T02:56:42.851Z,3.50
2023-04-24T02:59:11.081Z,3.70
2023-04-24T03:01:38.834Z,3.90
2023-04-24T03:04:06.886Z,3.63
2023-04-24T03:06:35.703Z,3.97
2023-04-24T03:09:03.941Z,3.63
2023-04-24T03:11:31.731Z,4.47
2023-04-24T03:13:59.472Z,4.40
2023-04-24T03:16:27.247Z,4.17
2023-04-24T03:18:55.162Z,4.30
2023-04-24T03:21:23.292Z,4.70
2023-04-24T03:23:51.006Z,4.80
2023-04-24T03:26:18.795Z,5.20
2023-04-24T03:28:46.533Z,5.53
2023-04-24T03:31:15.620Z,5.50
2023-04-24T03:33:43.435Z,6.43
2023-04-24T03:36:11.390Z,5.73
2023-04-24T03:38:39.139Z,7.00
2023-04-24T03:41:06.970Z,6.17
2023-04-24T03:43:35.037Z,7.50
2023-04-24T03:46:03.372Z,6.60
2023-04-24T03:48:31.243Z,8.17
2023-04-24T03:50:58.967Z,7.30
2023-04-24T03:53:27.224Z,7.73
2023-04-24T03:55:55.376Z,8.00
2023-04-24T03:58:23.221Z,7.17
2023-04-24T04:00:51.589Z,8.00
2023-04-24T04:03:19.508Z,8.20
2023-04-24T04:05:47.672Z,7.37
2023-04-24T04:08:15.419Z,7.97
2023-04-24T04:10:43.244Z,8.83
2023-04-24T04:13:11.063Z,7.80
2023-04-24T04:15:38.911Z,9.33
2023-04-24T04:18:06.845Z,8.10
2023-04-24T04:20:34.963Z,9.63
2023-04-24T04:23:02.696Z,8.93
2023-04-24T04:25:30.399Z,9.57
2023-04-24T04:27:59.902Z,8.73
2023-04-24T04:30:29.675Z,9.70
2023-04-24T04:32:57.498Z,9.20
2023-04-24T04:35:25.800Z,9.33
2023-04-24T04:37:53.559Z,9.20
2023-04-24T04:40:22.751Z,9.97
2023-04-24T04:42:53.336Z,9.67
2023-04-24T04:45:21.292Z,10.40
2023-04-24T04:47:49.384Z,10.17
2023-04-24T04:50:19.835Z,9.83
2023-04-24T04:52:47.853Z,10.67
2023-04-24T04:55:15.848Z,10.80
2023-04-24T04:57:43.643Z,12.10
2023-04-24T05:00:14.222Z,11.23
2023-04-24T05:02:42.354Z,11.10
2023-04-24T05:05:11.027Z,11.30
2023-04-24T05:07:38.798Z,12.30
2023-04-24T05:10:09.253Z,11.63
2023-04-24T05:12:36.975Z,11.90
2023-04-24T05:15:06.578Z,12.00
2023-04-24T05:17:34.606Z,12.37
2023-04-24T05:20:05.774Z,11.70
2023-04-24T05:22:33.566Z,13.57
2023-04-24T05:25:01.398Z,12.97
2023-04-24T05:27:29.180Z,12.83
2023-04-24T05:29:56.917Z,11.90
2023-04-24T05:32:25.050Z,12.43
2023-04-24T05:34:52.732Z,11.50
2023-04-24T05:37:20.892Z,12.17
2023-04-24T05:39:48.664Z,12.87
2023-04-24T05:42:16.361Z,11.93
2023-04-24T05:44:44.186Z,12.60
2023-04-24T05:47:11.931Z,11.63
2023-04-24T05:49:39.675Z,11.60
2023-04-24T05:52:09.146Z,11.27
2023-04-24T05:54:36.965Z,11.93
2023-04-24T05:57:07.802Z,12.23
2023-04-24T05:59:37.931Z,11.53
2023-04-24T06:02:06.219Z,11.73
2023-04-24T06:04:35.391Z,11.57
2023-04-24T06:07:03.618Z,11.00
2023-04-24T06:09:31.382Z,11.40
2023-04-24T06:12:00.376Z,10.53
2023-04-24T06:14:28.257Z,10.80
2023-04-24T06:16:56.074Z,9.90
2023-04-24T06:19:24.175Z,9.87
2023-04-24T06:24:41.586Z,10.10
2023-04-24T06:29:55.614Z,10.10
2023-04-24T06:32:24.352Z,9.47
2023-04-24T06:34:53.450Z,9.43
2023-04-24T06:37:21.827Z,9.70
2023-04-24T06:39:49.716Z,9.97
2023-04-24T06:42:17.506Z,10.50
2023-04-24T06:44:45.617Z,11.00
2023-04-24T06:47:13.916Z,10.57
2023-04-24T06:49:42.414Z,10.67
2023-04-24T06:52:10.494Z,9.43
2023-04-24T06:54:38.288Z,10.20
2023-04-24T06:57:06.349Z,8.90
2023-04-24T06:59:34.126Z,10.00
2023-04-24T07:02:01.856Z,8.57
2023-04-24T07:04:29.745Z,8.20
2023-04-24T07:06:58.286Z,8.60
2023-04-24T07:09:27.413Z,8.37
2023-04-24T07:11:56.822Z,8.03
2023-04-24T07:14:24.800Z,8.37
2023-04-24T07:16:52.670Z,8.20
2023-04-24T07:19:20.625Z,8.47
2023-04-24T07:21:48.895Z,8.87
2023-04-24T07:24:16.762Z,8.77
2023-04-24T07:26:46.749Z,9.10
2023-04-24T07:29:15.306Z,8.13
2023-04-24T07:31:43.143Z,8.60
2023-04-24T07:34:11.204Z,7.97
2023-04-24T07:36:39.039Z,8.60
2023-04-24T07:39:06.789Z,7.40
2023-04-24T07:41:35.030Z,8.57
2023-04-24T07:44:02.854Z,7.33
2023-04-24T07:46:31.715Z,6.93
2023-04-24T07:49:12.295Z,7.17
2023-04-24T07:51:41.679Z,6.73
2023-04-24T07:54:09.931Z,6.33
2023-04-24T07:56:39.334Z,7.47
2023-04-24T07:59:07.377Z,6.37
2023-04-24T08:01:35.436Z,6.53
2023-04-24T08:04:03.560Z,5.90
2023-04-24T08:06:32.317Z,5.67
2023-04-24T08:09:01.202Z,5.33
2023-04-24T08:11:29.114Z,5.40
2023-04-24T08:13:57.118Z,5.00
2023-04-24T08:16:25.492Z,5.10
2023-04-24T08:18:53.859Z,4.90
2023-04-24T08:21:21.899Z,5.10
2023-04-24T08:23:50.387Z,4.27
2023-04-24T08:26:18.345Z,4.67
2023-04-24T08:28:46.366Z,5.30
2023-04-24T08:31:14.190Z,4.70
2023-04-24T08:33:42.203Z,5.47
2023-04-24T08:36:10.438Z,5.03
2023-04-24T08:38:38.819Z,5.30
2023-04-24T08:41:08.422Z,5.10
2023-04-24T08:43:37.670Z,4.83
2023-04-24T08:46:09.487Z,4.50
2023-04-24T08:48:42.090Z,5.50
2023-04-24T08:51:11.147Z,5.13
2023-04-24T08:53:39.193Z,5.20
2023-04-24T08:56:07.189Z,4.80
2023-04-24T08:58:36.147Z,4.50
2023-04-24T09:01:05.330Z,4.17
2023-04-24T09:03:35.326Z,5.03
2023-04-24T09:06:04.769Z,4.27
2023-04-24T09:08:33.565Z,4.17
2023-04-24T09:11:03.503Z,3.53
2023-04-24T09:13:32.828Z,3.83
2023-04-24T09:16:00.960Z,3.17
2023-04-24T09:18:28.897Z,3.63
2023-04-24T09:21:01.959Z,3.70
2023-04-24T09:23:30.917Z,3.30
2023-04-24T09:26:00.704Z,3.80
2023-04-24T09:28:33.548Z,3.33
2023-04-24T09:31:09.901Z,3.90
2023-04-24T09:33:38.199Z,4.40
2023-04-24T09:36:06.981Z,3.50
2023-04-24T09:38:39.134Z,3.47
2023-04-24T09:41:09.043Z,3.57
2023-04-24T09:43:37.393Z,4.20
2023-04-24T09:46:09.808Z,3.60
2023-04-24T09:48:38.583Z,3.60
2023-04-24T09:51:10.777Z,3.40
2023-04-24T09:53:39.627Z,3.37
2023-04-24T09:56:10.433Z,2.80
2023-04-24T10:01:32.371Z,3.10
2023-04-24T10:04:00.419Z,3.00
2023-04-24T10:06:35.028Z,3.20
2023-04-24T10:09:04.210Z,2.87
2023-04-24T10:11:32.409Z,3.20
2023-04-24T10:14:01.291Z,3.20
2023-04-24T10:16:29.669Z,3.23
2023-04-24T10:18:59.924Z,3.23
2023-04-24T10:21:28.325Z,3.20
2023-04-24T10:23:57.152Z,3.33
2023-04-24T10:26:25.846Z,2.90
2023-04-24T10:28:54.821Z,2.83
2023-04-24T10:31:23.489Z,3.47
2023-04-24T10:33:53.252Z,2.90
2023-04-24T10:39:15.061Z,3.10
2023-04-24T10:41:43.589Z,4.07
2023-04-24T10:44:13.212Z,3.80
2023-04-24T10:46:45.232Z,5.27
2023-04-24T10:49:13.943Z,4.90
2023-04-24T10:51:50.341Z,5.53
2023-04-24T10:54:26.830Z,4.37
2023-04-24T10:57:26.435Z,4.03
2023-04-24T11:00:15.988Z,3.93
2023-04-24T11:02:49.919Z,5.43
2023-04-24T11:05:18.504Z,4.00
2023-04-24T11:11:03.592Z,3.90
2023-04-24T11:14:05.414Z,4.57
2023-04-24T11:16:35.501Z,3.93
2023-04-24T11:19:05.619Z,4.00
2023-04-24T11:21:40.465Z,4.03
2023-04-24T11:24:29.186Z,4.00
2023-04-24T11:26:58.433Z,3.77
2023-04-24T11:29:43.888Z,3.60
2023-04-24T11:32:31.187Z,3.60
2023-04-24T11:37:58.429Z,3.67
2023-04-24T11:40:38.288Z,2.80
2023-04-24T11:43:08.327Z,2.90
2023-04-24T11:45:37.078Z,3.00
2023-04-24T11:48:05.632Z,2.67
2023-04-24T11:50:33.784Z,3.00
2023-04-24T11:53:02.791Z,3.10
2023-04-24T11:55:31.138Z,3.00
2023-04-24T11:58:00.524Z,3.00
2023-04-24T12:00:30.242Z,3.30
2023-04-24T12:03:08.723Z,3.20
2023-04-24T12:05:37.229Z,3.77
2023-04-24T12:08:06.995Z,3.23
2023-04-24T12:10:36.160Z,3.53
2023-04-24T12:13:05.364Z,4.20
2023-04-24T12:15:34.023Z,4.10
2023-04-24T12:18:02.767Z,4.00
2023-04-24T12:20:33.063Z,3.70
2023-04-24T12:23:02.952Z,3.77
2023-04-24T12:25:31.928Z,3.60
2023-04-24T12:28:12.201Z,4.20
2023-04-24T12:30:44.836Z,4.70
2023-04-24T12:33:13.101Z,3.50
2023-04-24T12:35:42.515Z,4.83
2023-04-24T12:38:13.256Z,4.30
2023-04-24T12:40:41.729Z,4.23
2023-04-24T12:43:16.075Z,4.03
2023-04-24T12:45:45.133Z,4.33
2023-04-24T12:48:14.714Z,3.83
2023-04-24T12:50:45.675Z,4.87
2023-04-24T12:53:14.829Z,4.77
2023-04-24T12:55:42.696Z,4.33
2023-04-24T12:58:10.645Z,4.07
2023-04-24T13:00:39.137Z,4.23
2023-04-24T13:03:07.166Z,4.00
2023-04-24T13:05:35.316Z,4.63
2023-04-24T13:08:03.225Z,3.43
2023-04-24T13:10:31.767Z,3.60
2023-04-24T13:13:00.585Z,3.70
2023-04-24T13:15:28.584Z,4.53
2023-04-24T13:17:57.347Z,3.70
2023-04-24T13:20:26.544Z,4.03
2023-04-24T13:22:55.457Z,3.47
2023-04-24T13:25:25.394Z,3.53
2023-04-24T13:27:54.171Z,4.20
2023-04-24T13:33:07.922Z,3.47
2023-04-24T13:35:36.681Z,4.20
2023-04-24T13:38:07.087Z,3.83
2023-04-24T13:40:35.898Z,3.73
2023-04-24T13:43:04.238Z,3.80
2023-04-24T13:45:32.185Z,3.37
2023-04-24T13:48:02.166Z,3.20
2023-04-24T13:50:30.825Z,3.17
2023-04-24T13:53:02.038Z,2.90
2023-04-24T13:55:32.031Z,2.77
2023-04-24T13:58:01.740Z,2.20
2023-04-24T14:00:31.478Z,2.77
2023-04-24T14:03:00.218Z,2.80
2023-04-24T14:05:28.594Z,2.20
2023-04-24T14:07:57.039Z,2.50
2023-04-24T14:10:26.017Z,2.23
2023-04-24T14:12:54.017Z,2.20
2023-04-24T14:15:22.307Z,2.57
2023-04-24T14:17:50.646Z,2.30
2023-04-24T14:20:18.862Z,1.97
2023-04-24T14:22:46.806Z,2.77
2023-04-24T14:25:15.770Z,1.87
2023-04-24T14:27:43.734Z,2.37
2023-04-24T14:30:12.952Z,2.10
2023-04-24T14:32:41.548Z,2.33
2023-04-24T14:35:10.486Z,1.80
2023-04-24T14:37:41.460Z,2.20
2023-04-24T14:40:29.830Z,2.30
2023-04-24T14:43:20.727Z,1.70
2023-04-24T14:45:48.642Z,2.37
2023-04-24T14:48:16.808Z,1.90
2023-04-24T14:50:45.750Z,3.03
2023-04-24T14:53:15.265Z,2.17
2023-04-24T14:55:43.230Z,3.23
2023-04-24T14:58:11.229Z,2.00
2023-04-24T15:00:39.562Z,2.43
2023-04-24T15:03:07.846Z,1.93
2023-04-24T15:05:36.464Z,1.97
2023-04-24T15:08:04.876Z,2.17
2023-04-24T15:10:33.128Z,2.10
2023-04-24T15:13:01.113Z,2.00
2023-04-24T15:15:29.154Z,2.10
2023-04-24T15:17:57.480Z,2.30
2023-04-24T15:20:25.392Z,1.90
2023-04-24T15:22:53.453Z,2.60
2023-04-24T15:25:21.543Z,1.97
2023-04-24T15:27:49.434Z,3.23
2023-04-24T15:30:17.684Z,1.87
2023-04-24T15:32:45.594Z,2.83
2023-04-24T15:35:13.295Z,2.33
2023-04-24T15:37:42.337Z,2.10
2023-04-24T15:40:13.551Z,1.90
2023-04-24T15:42:42.158Z,2.47
2023-04-24T15:45:12.345Z,1.70
2023-04-24T15:47:40.896Z,2.10
2023-04-24T15:50:13.531Z,2.50
2023-04-24T15:52:42.814Z,2.80
2023-04-24T15:55:12.484Z,2.17
2023-04-24T15:57:40.491Z,2.23
2023-04-24T16:00:10.981Z,2.87
2023-04-24T16:02:39.550Z,3.07
2023-04-24T16:05:08.956Z,2.97
2023-04-24T16:07:38.958Z,3.23
2023-04-24T16:10:08.978Z,2.27
2023-04-24T16:12:36.953Z,2.17
2023-04-24T16:15:07.048Z,3.93
2023-04-24T16:17:35.269Z,2.87
2023-04-24T16:20:03.615Z,3.07
2023-04-24T16:22:31.822Z,2.90
2023-04-24T16:27:48.057Z,4.33
2023-04-24T16:30:16.286Z,4.37
2023-04-24T16:32:44.264Z,3.80
2023-04-24T16:35:12.349Z,2.63
2023-04-24T16:37:40.716Z,5.03
2023-04-24T16:40:10.419Z,3.27
2023-04-24T16:42:39.077Z,3.17
2023-04-24T16:45:10.389Z,3.07
2023-04-24T16:47:38.440Z,3.83
2023-04-24T16:50:09.109Z,3.50
2023-04-24T16:52:37.648Z,3.03
2023-04-24T16:55:08.689Z,3.97
2023-04-24T16:57:36.663Z,2.63
2023-04-24T17:00:07.379Z,3.17
2023-04-24T17:02:35.496Z,3.87
2023-04-24T17:05:04.092Z,3.23
2023-04-24T17:07:32.173Z,2.70
2023-04-24T17:10:00.524Z,2.60
2023-04-24T17:12:28.448Z,3.20
2023-04-24T17:17:46.411Z,4.50
2023-04-24T17:20:21.874Z,2.77
2023-04-24T17:22:51.190Z,5.00
2023-04-24T17:25:19.482Z,4.47
2023-04-24T17:27:47.737Z,4.13
2023-04-24T17:30:16.924Z,5.90
2023-04-24T17:32:44.935Z,7.53
2023-04-24T17:35:13.151Z,4.10
2023-04-24T17:37:41.236Z,5.10
2023-04-24T17:40:11.423Z,4.73
2023-04-24T17:42:40.777Z,3.93
2023-04-24T17:45:11.202Z,4.17
2023-04-24T17:47:40.697Z,4.73
2023-04-24T17:50:10.097Z,4.90
2023-04-24T17:52:39.407Z,3.47
2023-04-24T17:55:09.286Z,3.00
2023-04-24T17:57:37.618Z,4.73
2023-04-24T18:00:08.236Z,7.80
2023-04-24T18:02:36.505Z,3.40
2023-04-24T18:05:05.826Z,4.00
2023-04-24T18:07:33.876Z,5.87
2023-04-24T18:10:02.060Z,3.83
2023-04-24T18:12:30.048Z,3.03
2023-04-24T18:15:13.064Z,5.03
2023-04-24T18:17:42.950Z,4.80
2023-04-24T18:20:12.183Z,3.30
2023-04-24T18:22:40.681Z,5.67
2023-04-24T18:25:10.674Z,6.07
2023-04-24T18:27:39.851Z,4.43
2023-04-24T18:30:13.518Z,3.57
2023-04-24T18:32:42.796Z,7.63
2023-04-24T18:35:11.263Z,4.87
2023-04-24T18:37:40.134Z,3.07
2023-04-24T18:40:10.625Z,4.33
2023-04-24T18:42:39.034Z,4.77
2023-04-24T18:45:09.010Z,5.37
2023-04-24T18:47:37.745Z,3.40
2023-04-24T18:50:07.862Z,6.03
2023-04-24T18:52:35.700Z,5.73
2023-04-24T18:55:06.214Z,4.57
2023-04-24T18:57:34.764Z,8.33
2023-04-24T19:00:02.550Z,4.07
2023-04-24T19:02:30.966Z,4.77
2023-04-24T19:07:47.224Z,7.90
2023-04-24T19:10:16.029Z,5.87
2023-04-24T19:15:30.235Z,3.07
2023-04-24T19:17:58.257Z,4.70
2023-04-24T19:20:27.415Z,3.93
2023-04-24T19:22:56.170Z,8.50
2023-04-24T19:25:24.632Z,7.43
2023-04-24T19:27:52.688Z,9.03
2023-04-24T19:30:21.216Z,5.10
2023-04-24T19:32:49.423Z,6.90
2023-04-24T19:35:17.892Z,5.97
2023-04-24T19:40:35.255Z,4.93
2023-04-24T19:43:03.312Z,4.37
2023-04-24T19:45:31.388Z,4.43
2023-04-24T19:48:00.059Z,5.10
2023-04-24T19:50:28.136Z,3.60
2023-04-24T19:52:59.824Z,5.73
2023-04-24T19:55:31.673Z,4.23
2023-04-24T19:58:01.813Z,5.63
2023-04-24T20:00:30.418Z,4.73
2023-04-24T20:02:58.522Z,8.10
2023-04-24T20:05:27.317Z,7.20
2023-04-24T20:10:45.258Z,6.73
2023-04-24T20:13:13.488Z,5.50
2023-04-24T20:15:41.549Z,5.63
2023-04-24T20:18:09.990Z,6.27
2023-04-24T20:20:40.853Z,5.70
2023-04-24T20:23:09.091Z,4.20
2023-04-24T20:25:37.189Z,6.10
2023-04-24T20:28:05.351Z,5.00
2023-04-24T20:30:33.417Z,4.57
2023-04-24T20:35:51.651Z,8.07
2023-04-24T20:38:21.706Z,4.13
2023-04-24T20:40:57.816Z,6.00
2023-04-24T20:43:29.031Z,5.50
2023-04-24T20:45:57.443Z,7.17
2023-04-24T20:48:25.958Z,5.17
2023-04-24T20:50:53.903Z,5.77
2023-04-24T20:53:22.959Z,4.83
2023-04-24T20:55:51.005Z,5.67
2023-04-24T20:58:20.192Z,5.23
2023-04-24T21:00:48.243Z,5.97
2023-04-24T21:06:03.349Z,4.17
2023-04-24T21:08:31.327Z,4.63
2023-04-24T21:10:59.527Z,5.67
2023-04-24T21:13:27.763Z,6.03
2023-04-24T21:15:55.538Z,7.60
2023-04-24T21:18:23.783Z,7.60
2023-04-24T21:20:52.733Z,6.13
2023-04-24T21:23:20.671Z,4.00
2023-04-24T21:25:48.790Z,7.80
2023-04-24T21:28:17.280Z,5.77
2023-04-24T21:30:45.488Z,5.13
2023-04-24T21:33:13.386Z,4.97
2023-04-24T21:35:41.642Z,6.67
2023-04-24T21:38:09.377Z,6.07
2023-04-24T21:40:37.501Z,5.23
2023-04-24T21:43:05.501Z,5.87
2023-04-24T21:45:33.602Z,5.57
2023-04-24T21:48:01.562Z,4.90
2023-04-24T21:50:30.251Z,5.50
2023-04-24T21:52:58.089Z,8.03
2023-04-24T21:55:26.336Z,6.47
2023-04-24T21:57:54.280Z,8.50
2023-04-24T22:00:22.250Z,4.93
2023-04-24T22:02:50.519Z,7.37
2023-04-24T22:05:19.745Z,14.53
2023-04-24T22:07:50.629Z,14.97
2023-04-24T22:10:19.033Z,9.40
2023-04-24T22:12:47.518Z,11.17
2023-04-24T22:15:15.464Z,8.53
2023-04-24T22:17:43.373Z,6.70
2023-04-24T22:20:13.129Z,4.57
2023-04-24T22:22:40.996Z,5.07
2023-04-24T22:25:10.393Z,7.87
2023-04-24T22:27:38.429Z,6.70
2023-04-24T22:32:54.004Z,6.47
2023-04-24T22:35:21.799Z,5.17
2023-04-24T22:37:55.415Z,6.63
2023-04-24T22:40:27.363Z,5.03
2023-04-24T22:42:55.803Z,7.27
2023-04-24T22:45:23.761Z,5.67
2023-04-24T22:47:52.068Z,7.93
2023-04-24T22:50:20.464Z,5.67
2023-04-24T22:52:48.286Z,8.07
2023-04-24T22:55:16.372Z,4.87
2023-04-24T22:57:44.359Z,5.53
2023-04-24T23:00:13.810Z,5.97
2023-04-24T23:02:42.540Z,4.87
2023-04-24T23:05:11.559Z,4.67
2023-04-24T23:07:39.370Z,5.17
2023-04-24T23:10:09.161Z,4.30
2023-04-24T23:15:24.371Z,5.93
2023-04-24T23:17:52.168Z,7.67
2023-04-24T23:20:23.685Z,4.97
2023-04-24T23:22:51.476Z,6.13
2023-04-24T23:25:19.844Z,4.93
2023-04-24T23:27:47.688Z,6.00
2023-04-24T23:33:02.275Z,5.20
2023-04-24T23:35:30.828Z,4.40
2023-04-24T23:37:59.594Z,7.30
2023-04-24T23:40:27.757Z,6.10
2023-04-24T23:43:06.389Z,6.27
2023-04-24T23:45:36.441Z,5.00
2023-04-24T23:48:05.261Z,5.27
2023-04-24T23:50:33.410Z,4.87
2023-04-24T23:53:01.306Z,5.73
2023-04-24T23:55:29.458Z,6.97
2023-04-24T23:57:57.157Z,6.87
